McClure, Pennsylvania
Current Conditions -  °F | °C
As of 8:53 AM on Monday 22 Dec 2014 (Local Time) from KSEG Reporting Station
Haze Haze  
Wind Chill: -5°   Ceiling: Unl
Heat Index: -5°   Visibility: 3mi
Dew Point: -7°   Wind: 0mph
Humidity: 88%   Direction: NA
Pressure: 30.31"   Gusts: NA
Location:  40.71°N, 77.31°W
Report Text: KSEG 221353Z AUTO 00000KT 3SM BR CLR M05/M07 A3031 RMK AO2 SLP271 T10501067
Loading
Personal Weather Stations






























Interactive Weather Map New forecast layout! Learn more

10-Day Weather Forecast

Advertisements
Track Severe Weather on mobile